Time;durP1;ratioP1;P1;durP2;ratioP2;P2;SDS_P1;SDS_P2;PMS_P1;PMS_P2;Temp;Humidity;BMP_temperature;BMP_pressure;BME280_temperature;BME280_humidity;BME280_pressure;Samples;Min_cycle;Max_cycle;Signal;HPM_P1;HPM_P2
2024/01/06 00:01:50;;;;;;;11.43;4.28;;;;;;;10.63;100.00;97590.22;5092732;28;20053;-49
2024/01/06 00:04:15;;;;;;;12.27;6.57;;;;;;;10.52;100.00;97599.69;5092752;28;20028;-49
2024/01/06 00:06:41;;;;;;;9.98;5.55;;;;;;;10.42;100.00;97609.91;5092644;28;20510;-48
2024/01/06 00:09:07;;;;;;;11.50;8.38;;;;;;;10.37;100.00;97615.06;5092621;28;20069;-49
2024/01/06 00:11:33;;;;;;;10.95;5.20;;;;;;;10.27;100.00;97605.09;5092411;28;20027;-49
2024/01/06 00:13:59;;;;;;;5.13;2.40;;;;;;;10.24;100.00;97609.97;5091223;28;20020;-49
2024/01/06 00:16:24;;;;;;;7.47;2.85;;;;;;;10.28;100.00;97603.25;5091148;28;20020;-49
2024/01/06 00:18:50;;;;;;;7.22;2.45;;;;;;;10.36;100.00;97613.44;5091147;28;20020;-49
2024/01/06 00:21:16;;;;;;;4.20;2.17;;;;;;;10.52;100.00;97612.81;5092346;28;20039;-49
2024/01/06 00:23:42;;;;;;;7.38;1.98;;;;;;;10.56;100.00;97611.34;5092695;28;20044;-49
2024/01/06 00:26:11;;;;;;;8.95;2.40;;;;;;;10.63;100.00;97621.72;5092290;28;20490;-49
2024/01/06 00:28:38;;;;;;;5.13;2.22;;;;;;;10.71;100.00;97610.09;5090973;28;20169;-49
2024/01/06 00:31:05;;;;;;;10.00;1.88;;;;;;;10.83;100.00;97618.75;5092164;28;20434;-49
2024/01/06 00:33:31;;;;;;;5.63;1.80;;;;;;;10.93;100.00;97615.56;5091869;28;20126;-48
2024/01/06 00:35:57;;;;;;;4.57;1.70;;;;;;;11.02;100.00;97622.06;5092170;28;20052;-49
2024/01/06 00:38:23;;;;;;;7.60;2.35;;;;;;;11.03;100.00;97630.72;5090816;28;20020;-48
2024/01/06 00:40:48;;;;;;;8.20;1.70;;;;;;;10.95;100.00;97630.06;5090819;28;20031;-49
2024/01/06 00:43:14;;;;;;;6.50;2.17;;;;;;;10.93;100.00;97634.75;5090746;28;20509;-48
2024/01/06 00:45:40;;;;;;;6.15;2.42;;;;;;;11.07;100.00;97632.69;5090759;28;20043;-49
2024/01/06 00:48:06;;;;;;;7.07;2.00;;;;;;;11.08;100.00;97633.47;5090710;28;20593;-49
2024/01/06 00:50:32;;;;;;;4.82;1.48;;;;;;;11.07;100.00;97652.91;5091922;28;20077;-49
2024/01/06 00:52:57;;;;;;;5.18;2.20;;;;;;;11.11;100.00;97643.53;5090605;28;20497;-48
2024/01/06 00:55:24;;;;;;;7.63;1.92;;;;;;;11.17;100.00;97642.63;5091942;28;20024;-49
2024/01/06 00:57:50;;;;;;;7.78;2.33;;;;;;;11.29;100.00;97647.84;5090623;28;20490;-49
2024/01/06 01:00:16;;;;;;;4.97;1.85;;;;;;;11.37;100.00;97642.25;5091818;28;20494;-48
2024/01/06 01:02:42;;;;;;;7.72;1.75;;;;;;;11.40;100.00;97644.41;5091873;28;20104;-49
2024/01/06 01:05:08;;;;;;;5.90;1.45;;;;;;;11.50;100.00;97652.50;5091793;28;20021;-46
2024/01/06 01:07:34;;;;;;;4.85;1.60;;;;;;;11.62;100.00;97651.69;5091754;28;20028;-47
2024/01/06 01:09:59;;;;;;;5.57;1.58;;;;;;;11.62;100.00;97659.56;5090502;28;20034;-47
2024/01/06 01:12:25;;;;;;;8.40;2.15;;;;;;;11.66;100.00;97658.06;5090600;28;20036;-46
2024/01/06 01:14:52;;;;;;;8.85;2.15;;;;;;;11.72;100.00;97659.75;5090425;28;20030;-47
2024/01/06 01:17:18;;;;;;;5.20;1.70;;;;;;;11.84;100.00;97663.16;5090408;28;20114;-46
2024/01/06 01:19:44;;;;;;;6.63;1.50;;;;;;;11.84;100.00;97660.53;5091724;28;20031;-46
2024/01/06 01:22:10;;;;;;;4.20;1.42;;;;;;;11.79;100.00;97660.41;5091632;28;20031;-46
2024/01/06 01:24:35;;;;;;;6.35;2.35;;;;;;;11.89;100.00;97673.00;5091713;28;20111;-46
2024/01/06 01:27:01;;;;;;;8.68;2.70;;;;;;;11.84;100.00;97665.00;5090271;28;20031;-46
2024/01/06 01:29:27;;;;;;;4.95;1.25;;;;;;;11.79;100.00;97679.63;5091635;28;20494;-46
2024/01/06 01:31:52;;;;;;;8.45;1.50;;;;;;;11.71;100.00;97671.28;5089950;28;20059;-46
2024/01/06 01:34:18;;;;;;;6.20;1.45;;;;;;;11.59;100.00;97673.97;5091584;28;20028;-46
2024/01/06 01:36:44;;;;;;;4.70;1.40;;;;;;;11.53;100.00;97678.31;5090292;28;20401;-46
2024/01/06 01:39:10;;;;;;;3.40;1.55;;;;;;;11.54;100.00;97684.38;5091481;28;20024;-46
2024/01/06 01:41:36;;;;;;;6.03;1.55;;;;;;;11.30;100.00;97684.38;5091469;28;20127;-45
2024/01/06 01:44:02;;;;;;;4.70;1.75;;;;;;;11.17;100.00;97680.19;5091534;28;20039;-46
2024/01/06 01:46:29;;;;;;;4.53;1.38;;;;;;;11.12;100.00;97680.03;5092815;28;20031;-46
2024/01/06 01:48:56;;;;;;;8.93;2.25;;;;;;;11.24;100.00;97680.06;5094023;28;20028;-46
2024/01/06 01:51:23;;;;;;;3.15;1.38;;;;;;;11.44;100.00;97682.31;5095164;28;20056;-46
2024/01/06 01:53:52;;;;;;;3.35;1.30;;;;;;;11.39;100.00;97675.13;5093942;28;20039;-46
2024/01/06 01:56:19;;;;;;;7.63;1.70;;;;;;;11.51;100.00;97683.00;5095144;28;20055;-46
2024/01/06 01:58:45;;;;;;;8.13;1.73;;;;;;;11.45;100.00;97689.19;5093850;28;20500;-46
2024/01/06 02:01:11;;;;;;;6.85;1.52;;;;;;;11.35;100.00;97684.50;5076818;28;20035;-46
2024/01/06 02:03:38;;;;;;;5.45;1.50;;;;;;;11.44;100.00;97690.19;5076797;28;20032;-46
2024/01/06 02:06:03;;;;;;;6.20;2.33;;;;;;;11.33;100.00;97693.66;5076822;28;20028;-46
2024/01/06 02:08:29;;;;;;;8.52;2.45;;;;;;;11.22;100.00;97697.06;5093656;28;20028;-46
2024/01/06 02:10:56;;;;;;;5.22;1.42;;;;;;;11.30;100.00;97705.41;5094833;28;20028;-46
2024/01/06 02:13:22;;;;;;;3.28;1.20;;;;;;;11.27;100.00;97702.41;5093552;28;20020;-46
2024/01/06 02:15:48;;;;;;;6.63;1.83;;;;;;;11.26;100.00;97708.72;5094790;28;20096;-46
2024/01/06 02:18:14;;;;;;;6.70;2.08;;;;;;;11.36;100.00;97703.69;5094770;28;20111;-46
2024/01/06 02:20:44;;;;;;;5.20;2.58;;;;;;;11.58;100.00;97709.94;5094771;28;20494;-46
2024/01/06 02:23:09;;;;;;;4.55;1.60;;;;;;;11.67;100.00;97705.16;5094682;28;20055;-46
2024/01/06 02:25:35;;;;;;;5.57;1.90;;;;;;;11.63;100.00;97711.06;5094591;28;20068;-46
2024/01/06 02:28:01;;;;;;;6.82;1.30;;;;;;;11.67;100.00;97706.97;5094892;28;20035;-46
2024/01/06 02:30:27;;;;;;;7.60;2.17;;;;;;;11.74;100.00;97712.91;5076339;28;20020;-46
2024/01/06 02:32:53;;;;;;;5.50;1.85;;;;;;;11.76;100.00;97708.22;5092995;28;20093;-46
2024/01/06 02:35:21;;;;;;;4.85;1.30;;;;;;;11.66;100.00;97706.16;5094435;28;20054;-46
2024/01/06 02:37:47;;;;;;;5.30;1.42;;;;;;;11.60;100.00;97702.63;5094456;28;20040;-46
2024/01/06 02:40:13;;;;;;;8.23;1.55;;;;;;;11.37;100.00;97713.97;5093002;28;20048;-46
2024/01/06 02:42:39;;;;;;;4.90;1.30;;;;;;;11.19;100.00;97719.34;5094349;28;20031;-46
2024/01/06 02:45:06;;;;;;;6.00;3.03;;;;;;;11.28;100.00;97725.03;5094217;28;20020;-46
2024/01/06 02:47:32;;;;;;;5.82;2.47;;;;;;;11.30;100.00;97723.00;5094303;28;20031;-46
2024/01/06 02:49:58;;;;;;;4.93;2.03;;;;;;;11.33;100.00;97717.28;5092903;28;20024;-46
2024/01/06 02:52:24;;;;;;;4.97;1.90;;;;;;;11.36;100.00;97722.06;5093959;28;20024;-46
2024/01/06 02:54:49;;;;;;;9.20;2.40;;;;;;;11.44;100.00;97723.56;5094122;28;20027;-46
2024/01/06 02:57:15;;;;;;;5.68;2.00;;;;;;;11.47;100.00;97729.16;5093861;28;20028;-46
2024/01/06 02:59:44;;;;;;;7.88;1.40;;;;;;;11.43;100.00;97724.56;5092707;28;20020;-46
2024/01/06 03:02:11;;;;;;;7.82;1.70;;;;;;;11.45;100.00;97731.22;5093887;28;20139;-46
2024/01/06 03:04:37;;;;;;;5.53;1.52;;;;;;;11.33;100.00;97723.34;5092580;28;20420;-46
2024/01/06 03:07:02;;;;;;;5.50;1.48;;;;;;;11.30;100.00;97733.50;5093877;28;20025;-46
2024/01/06 03:09:31;;;;;;;9.63;2.08;;;;;;;11.24;100.00;97735.19;5094109;28;20432;-46
2024/01/06 03:11:57;;;;;;;5.90;1.60;;;;;;;11.26;100.00;97724.47;5093724;28;20460;-46
2024/01/06 03:14:22;;;;;;;7.35;1.75;;;;;;;11.31;100.00;97724.59;5092367;28;20053;-46
2024/01/06 03:16:48;;;;;;;8.00;2.20;;;;;;;11.28;100.00;97728.47;5093582;28;20480;-46
2024/01/06 03:19:14;;;;;;;6.70;1.42;;;;;;;11.08;100.00;97722.75;5093633;28;20016;-46
2024/01/06 03:21:40;;;;;;;4.18;1.55;;;;;;;10.91;100.00;97720.78;5092212;28;20505;-46
2024/01/06 03:24:09;;;;;;;3.80;1.40;;;;;;;10.93;100.00;97718.75;5093500;28;20012;-46
2024/01/06 03:26:35;;;;;;;4.88;2.20;;;;;;;10.94;100.00;97725.56;5093491;28;20103;-46
2024/01/06 03:29:02;;;;;;;10.00;1.90;;;;;;;10.84;100.00;97709.59;5092086;28;20394;-46
2024/01/06 03:31:29;;;;;;;4.85;1.80;;;;;;;10.57;100.00;97724.94;5093281;28;20020;-46
2024/01/06 03:33:55;;;;;;;5.93;2.03;;;;;;;10.37;100.00;97731.25;5091813;28;20059;-45
2024/01/06 03:36:25;;;;;;;5.78;1.73;;;;;;;10.36;100.00;97719.19;5093526;28;20050;-46
2024/01/06 03:38:50;;;;;;;9.77;1.80;;;;;;;10.40;100.00;97719.50;5091974;28;20451;-46
2024/01/06 03:41:16;;;;;;;6.57;1.90;;;;;;;10.50;100.00;97732.09;5091835;28;20052;-46
2024/01/06 03:43:42;;;;;;;6.68;1.60;;;;;;;10.61;100.00;97728.72;5093138;28;20413;-46
2024/01/06 03:46:08;;;;;;;8.10;1.45;;;;;;;10.67;100.00;97740.16;5091851;28;20020;-46
2024/01/06 03:48:33;;;;;;;4.43;1.77;;;;;;;10.69;100.00;97731.00;5093072;28;20034;-46
2024/01/06 03:51:00;;;;;;;11.88;1.70;;;;;;;10.76;100.00;97730.91;5092853;28;20047;-46
2024/01/06 03:53:26;;;;;;;5.70;1.60;;;;;;;10.86;100.00;97723.28;5092927;28;20040;-46
2024/01/06 03:55:52;;;;;;;4.60;1.90;;;;;;;11.09;100.00;97734.88;5092878;28;20035;-46
2024/01/06 03:58:17;;;;;;;8.13;2.60;;;;;;;11.10;100.00;97728.56;5092851;28;20027;-46
2024/01/06 04:00:43;;;;;;;8.30;1.67;;;;;;;11.06;100.00;97732.69;5092731;28;20035;-46
2024/01/06 04:03:09;;;;;;;8.00;1.73;;;;;;;11.04;100.00;97737.34;5092757;28;20073;-46
2024/01/06 04:05:35;;;;;;;5.10;1.50;;;;;;;10.82;100.00;97737.88;5091391;28;20111;-46
2024/01/06 04:08:00;;;;;;;14.73;10.25;;;;;;;10.67;100.00;97737.53;5092737;28;20048;-46
2024/01/06 04:10:26;;;;;;;6.10;3.75;;;;;;;10.70;100.00;97739.69;5092044;28;20478;-46
2024/01/06 04:12:53;;;;;;;3.78;1.95;;;;;;;10.72;100.00;97732.38;5092621;28;20074;-46
2024/01/06 04:15:18;;;;;;;7.60;1.88;;;;;;;10.64;100.00;97733.50;5092535;28;20383;-46
2024/01/06 04:17:48;;;;;;;721.67;646.22;;;;;;;10.54;100.00;97731.44;5092536;28;20031;-46
2024/01/06 04:20:13;;;;;;;121.07;104.50;;;;;;;10.35;100.00;97738.53;5092436;28;20032;-46
2024/01/06 04:22:39;;;;;;;19.52;14.90;;;;;;;10.29;100.00;97728.13;5092438;28;20032;-46
2024/01/06 04:25:05;;;;;;;11.73;5.75;;;;;;;10.33;100.00;97730.09;5091014;28;20475;-46
2024/01/06 04:27:33;;;;;;;9.13;2.90;;;;;;;10.32;100.00;97736.38;5092323;28;20024;-46
2024/01/06 04:29:59;;;;;;;7.18;2.45;;;;;;;10.32;100.00;97722.44;5092291;28;20020;-46
2024/01/06 04:32:25;;;;;;;6.13;2.63;;;;;;;10.33;100.00;97729.31;5090613;28;20058;-46
2024/01/06 04:34:51;;;;;;;5.32;2.13;;;;;;;10.37;100.00;97741.75;5090929;28;20021;-46
2024/01/06 04:37:16;;;;;;;7.18;2.97;;;;;;;10.34;100.00;97736.13;5092162;28;20095;-46
2024/01/06 04:39:42;;;;;;;7.00;2.13;;;;;;;10.30;100.00;97740.22;5092200;28;20013;-46
2024/01/06 04:42:08;;;;;;;3.97;1.95;;;;;;;10.35;100.00;97740.38;5090750;28;20039;-46
2024/01/06 04:44:34;;;;;;;4.55;1.85;;;;;;;10.35;100.00;97732.50;5092394;28;20012;-46
2024/01/06 04:46:59;;;;;;;8.88;2.40;;;;;;;10.27;100.00;97736.19;5090719;28;20027;-46
2024/01/06 04:49:25;;;;;;;12.07;2.95;;;;;;;10.17;100.00;97736.72;5090666;28;20115;-46
2024/01/06 04:51:51;;;;;;;10.23;2.10;;;;;;;10.20;100.00;97727.59;5091970;28;20031;-45
2024/01/06 04:54:17;;;;;;;6.50;2.17;;;;;;;10.18;100.00;97738.34;5090664;28;20028;-46
2024/01/06 04:56:42;;;;;;;4.20;1.70;;;;;;;10.25;100.00;97725.13;5090620;28;20024;-46
2024/01/06 04:59:08;;;;;;;5.15;1.77;;;;;;;10.24;100.00;97743.69;5091909;28;20116;-46
2024/01/06 05:01:34;;;;;;;6.70;1.95;;;;;;;10.23;100.00;97742.91;5090566;28;20406;-46
2024/01/06 05:03:59;;;;;;;7.57;1.92;;;;;;;10.20;100.00;97749.41;5090603;28;20058;-46
2024/01/06 05:06:25;;;;;;;10.10;2.42;;;;;;;10.23;100.00;97749.97;5091813;28;20024;-46
2024/01/06 05:08:51;;;;;;;8.02;2.03;;;;;;;10.22;100.00;97745.75;5090504;28;20146;-46
2024/01/06 05:11:16;;;;;;;7.38;2.10;;;;;;;10.23;100.00;97747.34;5090407;28;20132;-46
2024/01/06 05:13:42;;;;;;;6.82;2.17;;;;;;;10.42;100.00;97746.31;5090471;28;20024;-46
2024/01/06 05:16:08;;;;;;;7.35;1.60;;;;;;;10.49;100.00;97749.66;5090516;28;20027;-47
2024/01/06 05:18:37;;;;;;;5.82;2.08;;;;;;;10.63;100.00;97752.91;5091779;28;20024;-46
2024/01/06 05:21:03;;;;;;;8.77;1.70;;;;;;;10.67;100.00;97751.44;5092484;28;20028;-46
2024/01/06 05:23:29;;;;;;;7.03;1.85;;;;;;;10.57;100.00;97764.28;5095806;28;20024;-46
2024/01/06 05:25:55;;;;;;;10.13;1.77;;;;;;;10.48;99.62;97763.00;5094464;28;20032;-46
2024/01/06 05:28:21;;;;;;;10.32;2.40;;;;;;;10.41;99.53;97770.16;5094491;28;20073;-46
2024/01/06 05:30:46;;;;;;;8.40;3.95;;;;;;;10.40;100.00;97766.72;5094278;28;20504;-46
2024/01/06 05:33:13;;;;;;;7.22;2.08;;;;;;;10.43;100.00;97766.28;5094116;28;20048;-46
2024/01/06 05:35:39;;;;;;;5.22;1.58;;;;;;;10.31;99.57;97768.84;5094288;28;20059;-46
2024/01/06 05:38:05;;;;;;;8.20;2.40;;;;;;;10.20;99.93;97764.31;5094207;28;20111;-46
2024/01/06 05:40:30;;;;;;;8.30;2.25;;;;;;;10.17;100.00;97762.16;5094187;28;20464;-46
2024/01/06 05:42:56;;;;;;;6.38;2.00;;;;;;;10.29;100.00;97767.44;5095502;28;20028;-46
2024/01/06 05:45:22;;;;;;;10.60;1.75;;;;;;;10.32;99.28;97767.03;5094044;28;20387;-46
2024/01/06 05:47:49;;;;;;;6.85;2.00;;;;;;;10.34;97.75;97772.84;5094082;28;20371;-46
2024/01/06 05:50:18;;;;;;;7.40;2.72;;;;;;;10.35;98.36;97771.84;5095324;28;20500;-46
2024/01/06 05:52:44;;;;;;;8.82;2.03;;;;;;;10.44;100.00;97773.13;5093893;28;20036;-46
2024/01/06 05:55:10;;;;;;;4.55;1.88;;;;;;;10.65;99.37;97774.47;5093887;28;20036;-46
2024/01/06 05:57:36;;;;;;;7.63;2.55;;;;;;;10.56;96.70;97788.91;5095201;28;20020;-46
2024/01/06 06:00:02;;;;;;;9.45;1.85;;;;;;;10.44;96.73;97786.25;5095150;28;20063;-46
2024/01/06 06:02:28;;;;;;;5.07;1.70;;;;;;;10.43;98.33;97787.28;5095013;28;20085;-46
2024/01/06 06:04:54;;;;;;;9.30;1.70;;;;;;;10.43;98.47;97796.97;5095327;28;20028;-46
2024/01/06 06:07:20;;;;;;;4.18;1.80;;;;;;;10.42;97.97;97797.97;5094990;28;20024;-46
2024/01/06 06:09:48;;;;;;;5.07;1.50;;;;;;;10.33;98.95;97792.25;5095242;28;20793;-46
2024/01/06 06:12:14;;;;;;;9.48;2.95;;;;;;;10.38;100.00;97797.63;5094743;28;20070;-46
2024/01/06 06:14:40;;;;;;;12.07;2.85;;;;;;;10.28;98.06;97799.94;5094908;28;20052;-46
2024/01/06 06:17:06;;;;;;;3.78;1.50;;;;;;;10.15;97.65;97801.69;5094755;28;20408;-46
2024/01/06 06:19:32;;;;;;;6.82;2.45;;;;;;;10.15;97.90;97808.75;5094745;28;20070;-46
2024/01/06 06:22:01;;;;;;;4.00;1.70;;;;;;;10.18;98.36;97808.31;5094729;28;20027;-46
2024/01/06 06:24:26;;;;;;;5.07;1.55;;;;;;;10.21;98.97;97807.88;5093384;28;20085;-46
2024/01/06 06:26:52;;;;;;;12.57;3.72;;;;;;;10.18;100.00;97817.00;5094579;28;20024;-46
2024/01/06 06:29:18;;;;;;;10.27;2.30;;;;;;;10.25;100.00;97813.50;5094619;28;20147;-46
2024/01/06 06:31:44;;;;;;;5.95;1.92;;;;;;;10.19;99.55;97821.19;5093962;28;20032;-46
2024/01/06 06:34:10;;;;;;;166.05;89.40;;;;;;;10.12;99.29;97828.34;5088538;28;20071;-46
2024/01/06 06:36:36;;;;;;;74.80;33.80;;;;;;;10.10;98.71;97819.09;5093098;28;20421;-46
2024/01/06 06:39:04;;;;;;;12.35;6.07;;;;;;;10.14;97.76;97830.75;5094444;28;20016;-46
2024/01/06 06:41:30;;;;;;;10.75;2.88;;;;;;;10.11;97.64;97825.94;5094351;28;20493;-46
2024/01/06 06:43:57;;;;;;;11.38;2.20;;;;;;;10.07;97.47;97830.81;5092994;28;20032;-46
2024/01/06 06:46:24;;;;;;;9.35;2.20;;;;;;;9.92;97.13;97835.59;5094293;28;20046;-46
2024/01/06 06:48:50;;;;;;;5.22;2.42;;;;;;;9.88;97.66;97831.81;5092940;28;20024;-46
2024/01/06 06:51:16;;;;;;;9.43;1.92;;;;;;;9.80;96.54;97830.31;5094090;28;20102;-46
2024/01/06 06:53:42;;;;;;;15.43;4.10;;;;;;;9.78;98.28;97835.75;5094115;28;20095;-46
2024/01/06 06:56:08;;;;;;;10.65;3.30;;;;;;;9.81;100.00;97837.13;5094022;28;20020;-46
2024/01/06 06:58:33;;;;;;;3.38;1.70;;;;;;;9.90;100.00;97842.88;5092735;28;20020;-46
2024/01/06 07:00:59;;;;;;;6.68;2.00;;;;;;;9.90;100.00;97840.25;5093959;28;20074;-46
2024/01/06 07:03:26;;;;;;;8.13;2.17;;;;;;;9.82;99.69;97841.38;5093985;28;20040;-46
2024/01/06 07:05:52;;;;;;;6.22;2.10;;;;;;;9.84;100.00;97851.59;5093901;28;20020;-46
2024/01/06 07:08:18;;;;;;;7.22;2.38;;;;;;;9.94;100.00;97847.50;5093907;28;20020;-46
2024/01/06 07:10:43;;;;;;;4.72;1.90;;;;;;;10.00;94.89;97846.63;5093739;28;20058;-46
2024/01/06 07:13:09;;;;;;;3.75;1.75;;;;;;;10.02;97.72;97853.47;5093744;28;20052;-46
2024/01/06 07:15:35;;;;;;;6.25;2.35;;;;;;;10.14;100.00;97857.78;5093737;28;20036;-46
2024/01/06 07:18:01;;;;;;;6.97;2.20;;;;;;;10.22;100.00;97854.03;5092422;28;20502;-46
2024/01/06 07:20:27;;;;;;;7.72;1.98;;;;;;;10.24;100.00;97862.53;5093558;28;20024;-46
2024/01/06 07:22:53;;;;;;;7.75;1.80;;;;;;;10.26;99.97;97865.72;5092405;28;20031;-46
2024/01/06 07:25:19;;;;;;;7.15;1.77;;;;;;;10.32;98.33;97856.19;5093430;28;20389;-46
2024/01/06 07:27:44;;;;;;;18.88;13.15;;;;;;;10.35;100.00;97859.19;5093475;28;20020;-46
2024/01/06 07:30:10;;;;;;;20.40;15.40;;;;;;;10.27;98.43;97866.53;5093305;28;20012;-46
2024/01/06 07:32:36;;;;;;;46.65;41.90;;;;;;;10.13;96.86;97865.84;5093062;28;20046;-46
2024/01/06 07:35:02;;;;;;;16.55;8.02;;;;;;;10.00;95.59;97867.59;5093356;28;20024;-46
2024/01/06 07:37:29;;;;;;;8.45;4.47;;;;;;;9.94;94.38;97873.69;5093300;28;20366;-46
2024/01/06 07:39:54;;;;;;;18.23;10.18;;;;;;;10.01;95.72;97871.00;5091969;28;20059;-46
2024/01/06 07:42:20;;;;;;;8.52;5.95;;;;;;;10.05;96.23;97879.25;5091856;28;20116;-46
2024/01/06 07:44:46;;;;;;;10.98;2.30;;;;;;;10.09;97.13;97870.72;5074305;28;20028;-46
2024/01/06 07:47:12;;;;;;;4.68;2.30;;;;;;;10.18;99.41;97884.34;5093177;28;20024;-46
2024/01/06 07:49:37;;;;;;;7.45;2.03;;;;;;;10.16;97.96;97886.38;5093151;28;20035;-46
2024/01/06 07:52:03;;;;;;;9.18;2.10;;;;;;;10.13;96.67;97887.63;5074855;28;20031;-46
2024/01/06 07:54:30;;;;;;;8.85;2.33;;;;;;;9.95;94.58;97888.41;5091660;28;20402;-46
2024/01/06 07:56:56;;;;;;;8.27;2.10;;;;;;;9.88;93.35;97885.06;5092889;28;20410;-46
2024/01/06 07:59:21;;;;;;;9.82;2.42;;;;;;;9.78;92.71;97892.59;5092870;28;20030;-46
2024/01/06 08:01:47;;;;;;;7.07;2.53;;;;;;;9.78;95.17;97896.00;5092834;28;20559;-46
2024/01/06 08:04:13;;;;;;;6.57;1.73;;;;;;;9.82;95.14;97896.41;5092770;28;20020;-46
2024/01/06 08:06:38;;;;;;;5.82;2.63;;;;;;;9.91;94.74;97896.91;5092764;28;20024;-49
2024/01/06 08:09:04;;;;;;;5.57;1.98;;;;;;;9.87;91.68;97895.75;5092922;28;20032;-48
2024/01/06 08:11:30;;;;;;;6.93;2.10;;;;;;;9.81;93.54;97902.63;5092612;28;20031;-48
2024/01/06 08:13:56;;;;;;;8.98;2.60;;;;;;;9.82;93.37;97903.44;5092835;28;20028;-48
2024/01/06 08:16:22;;;;;;;8.55;2.75;;;;;;;9.68;91.42;97900.13;5091187;28;20412;-48
2024/01/06 08:18:47;;;;;;;9.38;2.25;;;;;;;9.67;94.34;97904.56;5092594;28;20059;-48
2024/01/06 08:21:13;;;;;;;6.97;2.83;;;;;;;9.75;95.50;97908.75;5092438;28;20056;-48
2024/01/06 08:23:39;;;;;;;4.82;2.28;;;;;;;9.68;95.64;97908.81;5092443;28;20110;-49
2024/01/06 08:26:05;;;;;;;7.05;2.20;;;;;;;9.65;97.27;97908.41;5091069;28;20066;-48
2024/01/06 08:28:31;;;;;;;8.98;2.80;;;;;;;9.76;96.28;97913.78;5092310;28;20103;-48
2024/01/06 08:30:57;;;;;;;6.93;2.38;;;;;;;9.84;96.67;97904.03;5092266;28;20107;-48
2024/01/06 08:33:23;;;;;;;5.78;2.08;;;;;;;9.82;94.68;97913.91;5092141;28;20032;-48
2024/01/06 08:35:48;;;;;;;7.18;2.17;;;;;;;9.82;95.15;97916.53;5092271;28;20569;-49
2024/01/06 08:38:14;;;;;;;8.60;2.40;;;;;;;9.80;93.08;97928.06;5090885;28;20024;-49
2024/01/06 08:40:40;;;;;;;8.25;2.60;;;;;;;9.66;90.18;97920.50;5090868;28;20034;-49
2024/01/06 08:43:05;;;;;;;10.98;4.25;;;;;;;9.69;92.10;97922.69;5092049;28;20405;-49
2024/01/06 08:45:31;;;;;;;7.10;2.20;;;;;;;9.63;90.79;97923.53;5092113;28;20493;-48
2024/01/06 08:47:57;;;;;;;6.68;2.05;;;;;;;9.60;91.81;97925.56;5092136;28;20491;-48
2024/01/06 08:50:23;;;;;;;8.35;2.42;;;;;;;9.67;90.23;97930.75;5091977;28;20394;-49
2024/01/06 08:52:49;;;;;;;6.60;2.05;;;;;;;9.87;90.68;97932.44;5091956;28;20016;-49
2024/01/06 08:55:16;;;;;;;4.82;2.47;;;;;;;9.98;89.07;97935.16;5090533;28;20097;-49
2024/01/06 08:57:42;;;;;;;7.95;2.70;;;;;;;10.12;88.01;97937.66;5091911;28;20040;-48
2024/01/06 09:00:10;;;;;;;7.53;2.83;;;;;;;10.31;88.28;97930.66;5091929;28;20061;-48
2024/01/06 09:02:38;;;;;;;12.57;10.30;;;;;;;10.45;86.86;97933.97;5090586;28;20035;-48
2024/01/06 09:05:05;;;;;;;7.97;3.03;;;;;;;10.51;87.02;97928.63;5091856;28;20020;-49
2024/01/06 09:07:30;;;;;;;8.30;2.30;;;;;;;10.56;86.45;97927.97;5091816;28;20016;-48
2024/01/06 09:09:56;;;;;;;5.15;2.50;;;;;;;10.55;81.84;97929.78;5091855;28;20386;-48
2024/01/06 09:12:22;;;;;;;6.22;1.98;;;;;;;10.41;81.37;97932.78;5090402;28;20036;-49
2024/01/06 09:14:47;;;;;;;7.88;2.30;;;;;;;10.35;82.56;97931.84;5091785;28;20020;-48
2024/01/06 09:17:13;;;;;;;8.30;3.45;;;;;;;10.32;83.97;97935.69;5091779;28;20028;-49
2024/01/06 09:19:39;;;;;;;5.10;1.80;;;;;;;10.20;81.32;97926.88;5090442;28;20494;-48
2024/01/06 09:22:05;;;;;;;6.03;2.28;;;;;;;10.10;80.98;97947.56;5090343;28;20116;-49
2024/01/06 09:24:31;;;;;;;12.18;6.68;;;;;;;10.06;84.95;97941.97;5091767;28;20020;-49
2024/01/06 09:26:57;;;;;;;8.95;3.53;;;;;;;10.12;86.53;97946.34;5090422;28;20031;-49
2024/01/06 09:29:22;;;;;;;21.80;10.32;;;;;;;10.21;83.82;97941.63;5091590;28;20429;-48
2024/01/06 09:31:48;;;;;;;6.35;3.20;;;;;;;10.36;85.35;97939.50;5091572;28;20017;-48
2024/01/06 09:34:14;;;;;;;10.77;3.08;;;;;;;10.32;81.45;97943.56;5091400;28;20059;-49
2024/01/06 09:36:40;;;;;;;6.05;2.42;;;;;;;10.37;81.69;97943.69;5091559;28;20062;-49
2024/01/06 09:39:07;;;;;;;9.02;2.45;;;;;;;10.43;79.92;97954.34;5091809;28;20040;-48
2024/01/06 09:41:33;;;;;;;5.22;2.17;;;;;;;10.45;80.82;97952.31;5091524;28;20035;-48
2024/01/06 09:43:59;;;;;;;5.68;2.47;;;;;;;10.52;79.73;97953.03;5091460;28;20050;-46
2024/01/06 09:46:26;;;;;;;7.43;2.50;;;;;;;10.63;77.84;97956.78;5091499;28;20028;-46
2024/01/06 09:48:55;;;;;;;8.18;3.05;;;;;;;10.68;78.38;97956.91;5090227;28;20028;-46
2024/01/06 09:51:22;;;;;;;5.97;2.28;;;;;;;10.89;80.93;97966.19;5091314;28;20024;-46
2024/01/06 09:54:12;;;;;;;5.72;2.50;;;;;;;11.08;80.31;97967.75;5091363;28;20020;-46
2024/01/06 09:56:39;;;;;;;9.95;4.05;;;;;;;11.12;77.41;97970.72;5091487;28;20020;-49
2024/01/06 09:59:05;;;;;;;6.97;3.25;;;;;;;11.07;77.68;97984.53;5091383;28;20028;-49
2024/01/06 10:01:31;;;;;;;7.15;2.08;;;;;;;10.98;74.44;97968.25;5090079;28;20028;-48
2024/01/06 10:03:56;;;;;;;5.07;2.35;;;;;;;10.97;75.61;97977.16;5091387;28;20024;-48
2024/01/06 10:06:22;;;;;;;5.20;2.28;;;;;;;11.12;77.70;97979.41;5091314;28;20433;-48
2024/01/06 10:08:51;;;;;;;6.75;3.20;;;;;;;11.31;76.62;97969.69;5095048;28;20020;-48
2024/01/06 10:11:20;;;;;;;6.70;2.10;;;;;;;11.30;73.67;97969.91;5094804;28;20512;-48
2024/01/06 10:13:51;;;;;;;8.80;1.80;;;;;;;11.39;73.65;97979.09;5093718;28;20112;-48
2024/01/06 10:16:17;;;;;;;6.43;2.03;;;;;;;11.53;72.54;97977.88;5094941;28;20060;-48
2024/01/06 10:18:44;;;;;;;7.20;2.20;;;;;;;11.76;70.47;97981.59;5093613;28;20035;-48
2024/01/06 10:21:10;;;;;;;6.70;2.20;;;;;;;11.72;69.64;97980.44;5094776;28;20501;-48
2024/01/06 10:23:36;;;;;;;6.80;2.28;;;;;;;11.71;72.70;97981.44;5094825;28;20038;-48
2024/01/06 10:26:03;;;;;;;4.97;2.20;;;;;;;11.63;73.92;97974.72;5094700;28;20402;-49
2024/01/06 10:28:29;;;;;;;5.93;1.63;;;;;;;11.43;71.30;97980.25;5093369;28;20124;-46
2024/01/06 10:30:56;;;;;;;4.18;1.70;;;;;;;11.32;70.24;97988.88;5094532;28;20069;-48
2024/01/06 10:33:23;;;;;;;6.68;2.90;;;;;;;11.23;72.22;97980.50;5094287;28;20040;-48
2024/01/06 10:35:49;;;;;;;6.72;2.08;;;;;;;11.24;68.73;97976.84;5094499;28;20099;-48
2024/01/06 10:38:16;;;;;;;7.38;2.92;;;;;;;11.30;66.62;97972.53;5094445;28;20020;-48
2024/01/06 10:41:06;;;;;;;8.07;2.00;;;;;;;11.31;66.93;97963.63;5094347;28;20028;-48
2024/01/06 10:43:36;;;;;;;4.95;1.98;;;;;;;11.46;64.53;97966.66;5094413;28;20028;-48
2024/01/06 10:46:07;;;;;;;9.65;2.22;;;;;;;12.16;66.89;97963.38;5094285;28;20024;-48
2024/01/06 10:48:35;;;;;;;6.80;2.78;;;;;;;12.42;64.73;97965.78;5093024;28;20032;-48
2024/01/06 10:51:07;;;;;;;8.18;2.50;;;;;;;12.89;66.42;97955.19;5092831;28;20026;-48
2024/01/06 10:53:38;;;;;;;8.57;2.53;;;;;;;12.95;65.24;97957.69;5092905;28;20032;-49
2024/01/06 10:56:06;;;;;;;5.00;1.70;;;;;;;13.05;60.30;97941.28;5094125;28;20052;-48
2024/01/06 10:58:36;;;;;;;6.53;2.92;;;;;;;13.43;60.51;97939.88;5094033;28;20065;-48
2024/01/06 11:01:02;;;;;;;12.00;3.97;;;;;;;13.65;58.96;97947.13;5094319;28;20024;-48
2024/01/06 11:03:29;;;;;;;8.38;1.67;;;;;;;13.69;61.30;97933.22;5093976;28;20103;-49
2024/01/06 11:05:57;;;;;;;5.63;1.73;;;;;;;14.87;58.94;97932.25;5093904;28;20052;-46
2024/01/06 11:08:25;;;;;;;5.47;1.95;;;;;;;15.83;54.26;97945.91;5093898;28;20024;-44
2024/01/06 11:10:51;;;;;;;6.90;2.83;;;;;;;15.40;54.84;97932.53;5093772;28;20024;-46
2024/01/06 11:13:23;;;;;;;4.20;1.42;;;;;;;14.55;51.32;97922.31;5093955;28;20035;-46
2024/01/06 11:15:53;;;;;;;2.72;1.42;;;;;;;14.19;53.29;97923.69;5093822;28;20525;-46
2024/01/06 11:18:40;;;;;;;6.00;1.17;;;;;;;14.87;49.25;97931.44;5091462;28;20024;-46
2024/01/06 11:21:14;;;;;;;5.70;1.75;;;;;;;14.69;51.19;97928.09;5093612;28;20066;-46
2024/01/06 11:23:44;;;;;;;5.50;1.60;;;;;;;14.55;50.91;97930.25;5093648;28;20020;-46
2024/01/06 11:26:10;;;;;;;3.47;1.63;;;;;;;14.39;53.50;97926.59;5092144;28;20561;-46